Time;durP1;ratioP1;P1;durP2;ratioP2;P2;SDS_P1;SDS_P2;PMS_P1;PMS_P2;Temp;Humidity;BMP_temperature;BMP_pressure;BME280_temperature;BME280_humidity;BME280_pressure;Samples;Min_cycle;Max_cycle;Signal;HPM_P1;HPM_P2
2022/04/11 00:01:36;;;;;;;6.60;3.40;;;;;;;8.28;42.88;101315.25;5072170;28;20049;-70
2022/04/11 00:04:04;;;;;;;5.65;3.28;;;;;;;8.33;42.67;101326.25;5071985;28;20060;-69
2022/04/11 00:06:32;;;;;;;4.07;2.65;;;;;;;8.23;43.21;101313.25;5070456;28;20049;-69
2022/04/11 00:09:00;;;;;;;5.72;2.95;;;;;;;8.20;43.91;101319.19;5071765;28;20064;-69
2022/04/11 00:11:28;;;;;;;4.20;2.90;;;;;;;8.16;43.28;101320.78;5072016;28;20052;-70
2022/04/11 00:13:56;;;;;;;4.35;2.65;;;;;;;8.06;43.62;101316.78;5071295;28;20044;-69
2022/04/11 00:16:24;;;;;;;3.53;3.00;;;;;;;7.92;44.07;101310.81;5071351;28;20399;-69
2022/04/11 00:18:52;;;;;;;6.35;2.55;;;;;;;7.90;44.05;101309.38;5071616;28;20487;-69
2022/04/11 00:21:20;;;;;;;3.55;2.88;;;;;;;7.98;44.70;101313.63;5070181;28;20059;-69
2022/04/11 00:23:48;;;;;;;4.00;2.80;;;;;;;8.04;44.75;101305.31;5070466;28;20057;-69
2022/04/11 00:26:16;;;;;;;4.95;3.20;;;;;;;7.97;44.81;101304.59;5071366;28;20049;-69
2022/04/11 00:28:45;;;;;;;7.53;3.03;;;;;;;7.77;45.32;101300.44;5070953;28;20503;-69
2022/04/11 00:31:13;;;;;;;3.50;2.58;;;;;;;7.60;45.70;101303.13;5070373;28;20048;-69
2022/04/11 00:33:41;;;;;;;5.25;2.58;;;;;;;7.46;45.70;101299.84;5071681;28;20414;-69
2022/04/11 00:36:08;;;;;;;3.28;2.42;;;;;;;7.38;45.96;101302.94;5071116;28;20056;-69
2022/04/11 00:38:38;;;;;;;3.65;2.60;;;;;;;7.29;46.55;101299.78;5070821;28;20056;-69
2022/04/11 00:41:06;;;;;;;2.63;2.40;;;;;;;7.27;46.11;101293.72;5071674;28;20092;-69
2022/04/11 00:43:39;;;;;;;4.07;2.30;;;;;;;7.30;46.54;101295.13;5070299;28;20047;-69
2022/04/11 00:46:09;;;;;;;3.65;2.67;;;;;;;7.28;46.00;101297.28;5071406;28;20044;-69
2022/04/11 00:48:37;;;;;;;2.10;1.90;;;;;;;7.26;47.19;101298.34;5071489;28;20041;-69
2022/04/11 00:51:11;;;;;;;3.88;2.17;;;;;;;7.24;46.77;101292.31;5071460;28;20060;-69
2022/04/11 00:53:43;;;;;;;2.53;2.17;;;;;;;7.19;46.97;101294.91;5088659;28;20056;-69
2022/04/11 00:56:13;;;;;;;4.85;2.60;;;;;;;7.15;47.95;101301.91;5071466;28;20067;-69
2022/04/11 00:58:41;;;;;;;3.40;2.63;;;;;;;7.10;48.19;101308.06;5069526;28;20384;-69
2022/04/11 01:01:09;;;;;;;2.67;2.47;;;;;;;7.08;48.51;101303.91;5069684;28;20051;-69
2022/04/11 01:03:37;;;;;;;3.72;2.53;;;;;;;7.05;49.00;101315.31;5069956;28;20052;-69
2022/04/11 01:06:07;;;;;;;3.90;2.60;;;;;;;7.18;48.64;101309.59;5071471;28;20044;-69
2022/04/11 01:08:36;;;;;;;4.07;2.63;;;;;;;7.55;46.70;101313.06;5071060;28;20419;-69
2022/04/11 01:11:05;;;;;;;3.60;2.50;;;;;;;7.63;46.79;101318.16;5070024;28;20491;-69
2022/04/11 01:13:34;;;;;;;3.28;2.35;;;;;;;7.63;47.71;101313.50;5069283;28;20052;-69
2022/04/11 01:16:05;;;;;;;4.20;2.30;;;;;;;7.55;48.12;101319.34;5069960;28;20040;-69
2022/04/11 01:18:34;;;;;;;2.35;1.95;;;;;;;7.30;49.02;101322.38;5069318;28;20053;-69
2022/04/11 01:21:05;;;;;;;4.85;3.03;;;;;;;7.11;49.47;101319.78;5069645;28;20040;-69
2022/04/11 01:23:33;;;;;;;3.45;2.40;;;;;;;6.94;49.08;101325.94;5053424;28;20056;-69
2022/04/11 01:26:02;;;;;;;3.20;2.70;;;;;;;6.97;49.31;101321.91;5071033;28;20505;-69
2022/04/11 01:28:32;;;;;;;2.25;1.75;;;;;;;6.97;50.03;101322.75;5069330;28;20056;-69
2022/04/11 01:31:00;;;;;;;3.38;2.83;;;;;;;7.02;48.76;101322.03;5068923;28;20075;-69
2022/04/11 01:33:30;;;;;;;3.17;2.60;;;;;;;7.05;49.09;101320.75;5072823;28;20437;-69
2022/04/11 01:36:02;;;;;;;2.60;2.40;;;;;;;7.01;49.84;101316.84;5072960;28;20044;-69
2022/04/11 01:38:30;;;;;;;2.78;2.58;;;;;;;6.80;50.63;101327.25;5074144;28;20052;-69
2022/04/11 01:40:58;;;;;;;3.08;2.60;;;;;;;6.92;50.24;101333.53;5072769;28;20049;-69
2022/04/11 01:43:26;;;;;;;3.42;2.33;;;;;;;6.79;50.61;101333.75;5090007;28;20502;-69
2022/04/11 01:45:55;;;;;;;3.03;2.58;;;;;;;6.64;51.29;101334.22;5098099;28;20411;-69
2022/04/11 01:48:36;;;;;;;3.38;2.17;;;;;;;6.65;50.91;101331.25;5069081;28;20071;-69
2022/04/11 01:51:04;;;;;;;4.90;2.83;;;;;;;6.80;50.47;101335.41;5073338;28;20044;-69
2022/04/11 01:53:32;;;;;;;3.35;2.50;;;;;;;6.98;48.92;101329.84;5072368;28;20513;-68
2022/04/11 01:56:00;;;;;;;5.15;2.30;;;;;;;7.05;48.81;101332.47;5073256;28;20053;-69
2022/04/11 01:58:30;;;;;;;3.03;2.38;;;;;;;7.02;49.29;101332.09;5091491;28;20061;-69
2022/04/11 02:00:59;;;;;;;2.97;2.40;;;;;;;6.97;48.27;101341.81;5073104;28;20036;-68
2022/04/11 02:03:32;;;;;;;3.03;2.20;;;;;;;6.97;48.55;101330.09;5072196;28;20418;-69
2022/04/11 02:06:00;;;;;;;3.83;3.03;;;;;;;7.04;49.26;101335.41;5075908;28;20434;-69
2022/04/11 02:08:28;;;;;;;3.10;2.55;;;;;;;7.10;49.87;101329.03;5073507;28;20499;-69
2022/04/11 02:11:05;;;;;;;5.05;2.42;;;;;;;7.15;48.35;101331.03;5072938;28;20498;-69
2022/04/11 02:13:34;;;;;;;5.43;2.90;;;;;;;7.02;49.16;101321.19;5074053;28;20045;-69
2022/04/11 02:16:02;;;;;;;4.57;2.72;;;;;;;7.12;48.09;101329.59;5072997;28;20055;-69
2022/04/11 02:18:30;;;;;;;2.65;2.35;;;;;;;7.17;48.03;101332.44;5071879;28;20044;-69
2022/04/11 02:20:58;;;;;;;3.55;2.78;;;;;;;6.99;48.91;101328.78;5071671;28;20495;-69
2022/04/11 02:23:26;;;;;;;3.67;2.33;;;;;;;7.04;49.15;101327.25;5096567;28;20049;-69
2022/04/11 02:25:55;;;;;;;2.90;2.28;;;;;;;7.08;49.21;101336.59;5069869;28;20045;-69
2022/04/11 02:28:24;;;;;;;5.05;3.10;;;;;;;6.95;50.66;101333.03;5071593;28;20055;-69
2022/04/11 02:30:52;;;;;;;3.22;2.13;;;;;;;6.87;49.57;101333.41;5071751;28;20059;-69
2022/04/11 02:33:21;;;;;;;4.32;2.70;;;;;;;6.98;48.70;101324.41;5072504;28;20051;-69
2022/04/11 02:35:50;;;;;;;3.55;2.47;;;;;;;6.94;48.69;101330.56;5072010;28;20052;-69
2022/04/11 02:38:19;;;;;;;3.65;2.67;;;;;;;6.93;48.88;101329.72;5072215;28;20487;-69
2022/04/11 02:40:48;;;;;;;3.85;3.00;;;;;;;7.05;48.43;101332.47;5072353;28;20041;-69
2022/04/11 02:43:22;;;;;;;2.90;2.60;;;;;;;7.19;48.10;101333.03;5073211;28;20406;-69
2022/04/11 02:45:55;;;;;;;2.95;2.50;;;;;;;7.23;47.74;101319.75;5071321;28;20056;-69
2022/04/11 02:48:28;;;;;;;4.18;2.85;;;;;;;7.06;48.19;101327.84;5055231;28;20403;-69
2022/04/11 02:51:08;;;;;;;2.75;2.35;;;;;;;6.93;50.33;101321.56;5071476;28;20053;-69
2022/04/11 02:53:44;;;;;;;4.55;2.38;;;;;;;6.80;49.15;101313.66;5055148;28;20047;-69
2022/04/11 02:56:13;;;;;;;5.43;2.08;;;;;;;6.78;49.08;101321.19;5071361;28;20053;-69
2022/04/11 02:58:41;;;;;;;2.42;2.25;;;;;;;6.86;49.62;101324.41;5090176;28;20053;-69
2022/04/11 03:01:09;;;;;;;2.80;2.20;;;;;;;7.03;49.57;101317.44;5097613;28;20510;-69
2022/04/11 03:03:39;;;;;;;2.63;2.22;;;;;;;7.03;48.72;101320.97;5085510;28;20052;-69
2022/04/11 03:06:07;;;;;;;3.53;2.40;;;;;;;6.92;49.53;101317.19;5087709;28;20494;-69
2022/04/11 03:08:36;;;;;;;2.47;1.92;;;;;;;6.93;49.19;101324.28;5087544;28;20056;-69
2022/04/11 03:11:07;;;;;;;4.43;2.80;;;;;;;6.95;48.85;101319.44;5071697;28;20081;-69
2022/04/11 03:13:35;;;;;;;3.25;2.70;;;;;;;6.85;48.81;101321.94;5054518;28;20052;-69
2022/04/11 03:16:03;;;;;;;3.42;2.42;;;;;;;7.03;49.12;101306.56;5050772;28;20395;-69
2022/04/11 03:18:31;;;;;;;5.80;2.60;;;;;;;7.04;48.73;101303.56;5062083;28;20495;-69
2022/04/11 03:20:59;;;;;;;3.25;2.38;;;;;;;7.06;48.56;101296.00;5072456;28;20487;-69
2022/04/11 03:23:27;;;;;;;4.57;2.50;;;;;;;7.00;47.74;101296.97;5077224;28;20438;-69
2022/04/11 03:25:57;;;;;;;2.35;2.10;;;;;;;6.90;48.62;101296.72;5067802;28;20051;-69
2022/04/11 03:28:29;;;;;;;6.03;2.10;;;;;;;6.94;48.04;101306.91;5071270;28;20406;-69
2022/04/11 03:30:59;;;;;;;6.18;2.25;;;;;;;6.92;48.77;101305.47;5070273;28;20063;-69
2022/04/11 03:33:27;;;;;;;3.97;2.20;;;;;;;6.75;49.29;101306.19;5071236;28;20063;-69
2022/04/11 03:35:56;;;;;;;2.55;1.98;;;;;;;6.65;50.68;101303.25;5071156;28;20399;-69
2022/04/11 03:38:24;;;;;;;2.45;2.03;;;;;;;6.75;49.36;101295.28;5103888;28;20044;-69
2022/04/11 03:40:53;;;;;;;3.58;2.20;;;;;;;6.69;49.70;101297.09;5078463;28;20045;-69
2022/04/11 03:43:21;;;;;;;3.47;2.50;;;;;;;6.64;50.52;101296.16;5067557;28;20101;-69
2022/04/11 03:45:49;;;;;;;2.97;2.40;;;;;;;6.54;50.92;101305.72;5054919;28;20044;-69
2022/04/11 03:48:19;;;;;;;3.35;2.58;;;;;;;6.45;51.22;101302.50;5070680;28;20479;-69
2022/04/11 03:50:48;;;;;;;5.78;2.40;;;;;;;6.36;51.03;101303.91;5070039;28;20491;-69
2022/04/11 03:53:17;;;;;;;2.92;2.17;;;;;;;6.31;51.31;101301.06;5073089;28;20064;-69
2022/04/11 03:55:49;;;;;;;3.33;2.30;;;;;;;6.40;52.14;101302.38;5057112;28;20048;-69
2022/04/11 03:58:18;;;;;;;3.15;2.50;;;;;;;6.44;52.95;101303.56;5054793;28;20056;-69
2022/04/11 04:00:47;;;;;;;5.45;3.65;;;;;;;6.29;53.07;101303.19;5070444;28;20055;-69
2022/04/11 04:03:24;;;;;;;5.63;3.38;;;;;;;6.14;53.54;101306.34;5085510;28;20053;-69
2022/04/11 04:05:57;;;;;;;6.10;3.42;;;;;;;6.04;54.11;101304.19;5072034;28;20036;-69
2022/04/11 04:08:30;;;;;;;6.50;3.08;;;;;;;5.98;54.39;101307.78;5053932;28;20047;-69
2022/04/11 04:11:04;;;;;;;5.25;2.72;;;;;;;5.91;54.14;101313.31;5069908;28;20433;-69
2022/04/11 04:13:41;;;;;;;3.35;2.55;;;;;;;5.91;54.67;101319.59;5090704;28;20060;-69
2022/04/11 04:16:10;;;;;;;3.30;3.00;;;;;;;5.90;55.79;101314.38;5070361;28;20399;-69
2022/04/11 04:18:41;;;;;;;3.58;2.70;;;;;;;5.86;54.67;101319.44;5070790;28;20040;-69
2022/04/11 04:21:11;;;;;;;4.60;3.20;;;;;;;5.84;54.43;101316.13;5070561;28;20059;-69
2022/04/11 04:23:41;;;;;;;4.25;2.40;;;;;;;5.89;54.43;101316.28;5069800;28;20052;-69
2022/04/11 04:26:09;;;;;;;3.42;2.90;;;;;;;5.98;54.45;101318.66;5071684;28;20036;-69
2022/04/11 04:28:37;;;;;;;8.25;3.17;;;;;;;5.94;55.00;101312.88;5071358;28;20045;-69
2022/04/11 04:31:05;;;;;;;5.72;3.42;;;;;;;5.96;55.15;101323.50;5070323;28;20045;-69
2022/04/11 04:33:36;;;;;;;6.72;3.30;;;;;;;5.99;55.09;101320.31;5070207;28;20808;-69
2022/04/11 04:36:08;;;;;;;4.40;3.05;;;;;;;6.01;53.93;101318.22;5053780;28;20056;-69
2022/04/11 04:38:37;;;;;;;4.55;2.90;;;;;;;5.97;55.11;101320.53;5070451;28;20036;-69
2022/04/11 04:41:05;;;;;;;6.43;3.42;;;;;;;5.91;54.50;101318.75;5086488;28;20051;-69
2022/04/11 04:43:33;;;;;;;7.50;3.08;;;;;;;5.85;54.66;101323.22;5069373;28;20502;-69
2022/04/11 04:46:01;;;;;;;3.13;2.83;;;;;;;5.81;54.34;101316.59;5071332;28;20395;-69
2022/04/11 04:48:51;;;;;;;6.57;3.00;;;;;;;5.75;54.46;101317.50;5069873;28;20033;-69
2022/04/11 04:51:21;;;;;;;5.82;2.63;;;;;;;5.77;54.53;101321.66;5069680;28;20045;-70
2022/04/11 04:53:56;;;;;;;4.07;2.90;;;;;;;5.75;53.98;101321.06;5069294;28;20384;-69
2022/04/11 04:56:28;;;;;;;5.13;3.33;;;;;;;5.77;55.01;101309.97;5071458;28;20044;-68
2022/04/11 04:59:00;;;;;;;10.15;3.33;;;;;;;6.03;54.37;101316.13;5070329;28;20037;-71
2022/04/11 05:01:28;;;;;;;5.05;2.67;;;;;;;6.11;53.34;101318.50;5069576;28;20053;-71
2022/04/11 05:03:56;;;;;;;7.30;3.10;;;;;;;6.08;53.70;101313.53;5069483;28;20052;-71
2022/04/11 05:06:30;;;;;;;4.57;3.20;;;;;;;6.11;53.98;101313.06;5069936;28;20517;-70
2022/04/11 05:08:59;;;;;;;5.97;3.17;;;;;;;6.10;53.09;101305.97;5092058;28;20052;-70
2022/04/11 05:11:28;;;;;;;5.85;2.90;;;;;;;6.13;53.12;101316.38;5056540;28;20056;-69
2022/04/11 05:13:56;;;;;;;3.35;2.40;;;;;;;6.09;54.33;101319.78;5069707;28;20040;-70
2022/04/11 05:16:31;;;;;;;4.72;3.08;;;;;;;6.23;53.69;101314.97;5072704;28;20414;-71
2022/04/11 05:19:00;;;;;;;5.03;3.13;;;;;;;6.43;52.56;101320.94;5072629;28;20040;-70
2022/04/11 05:21:28;;;;;;;6.47;3.22;;;;;;;6.38;53.47;101318.09;5072859;28;20071;-70
2022/04/11 05:24:03;;;;;;;6.78;3.08;;;;;;;6.36;54.29;101324.84;5072333;28;20040;-70
2022/04/11 05:26:31;;;;;;;6.55;3.00;;;;;;;6.32;53.19;101325.28;5106808;28;20045;-71
2022/04/11 05:29:03;;;;;;;6.55;3.42;;;;;;;6.41;53.25;101327.69;5073294;28;20067;-71
2022/04/11 05:31:32;;;;;;;8.90;3.00;;;;;;;6.55;52.01;101334.56;5072986;28;20036;-71
2022/04/11 05:34:01;;;;;;;5.82;3.50;;;;;;;6.67;52.63;101331.88;5072639;28;20055;-71
2022/04/11 05:36:29;;;;;;;5.03;2.95;;;;;;;6.85;51.22;101344.50;5073740;28;20052;-71
2022/04/11 05:38:58;;;;;;;5.35;3.30;;;;;;;6.92;51.36;101344.41;5074607;28;20048;-71
2022/04/11 05:41:26;;;;;;;8.25;3.15;;;;;;;7.08;51.58;101355.63;5104808;28;20056;-71
2022/04/11 05:43:54;;;;;;;5.03;3.22;;;;;;;7.32;50.88;101347.44;5073168;28;20045;-71
2022/04/11 05:46:28;;;;;;;6.78;3.58;;;;;;;7.55;49.73;101348.47;5073353;28;20427;-71
2022/04/11 05:49:04;;;;;;;5.22;3.22;;;;;;;8.03;48.85;101358.16;5100509;28;20041;-71
2022/04/11 05:51:33;;;;;;;5.90;3.08;;;;;;;8.23;48.11;101359.63;5066320;28;20051;-71
2022/04/11 05:54:01;;;;;;;7.43;4.15;;;;;;;8.34;48.19;101364.19;5073143;28;20044;-71
2022/04/11 05:56:30;;;;;;;8.38;3.60;;;;;;;8.55;47.69;101359.09;5073049;28;20048;-71
2022/04/11 05:59:03;;;;;;;7.15;3.85;;;;;;;8.77;46.68;101369.28;5087843;28;20049;-71
2022/04/11 06:01:32;;;;;;;13.48;4.00;;;;;;;8.86;46.21;101367.78;5064458;28;20055;-71
2022/04/11 06:04:00;;;;;;;8.13;3.70;;;;;;;9.19;45.61;101376.19;5074023;28;20056;-71
2022/04/11 06:06:31;;;;;;;7.28;4.45;;;;;;;9.32;44.59;101372.28;5056326;28;20044;-71
2022/04/11 06:08:59;;;;;;;8.18;3.90;;;;;;;9.40;44.21;101373.75;5072886;28;20040;-71
2022/04/11 06:11:28;;;;;;;7.68;3.65;;;;;;;9.52;44.39;101371.72;5055818;28;20055;-72
2022/04/11 06:13:57;;;;;;;6.80;3.53;;;;;;;9.74;43.59;101373.66;5072549;28;20043;-72
2022/04/11 06:16:25;;;;;;;6.80;4.07;;;;;;;9.74;43.18;101362.72;5073978;28;20049;-71
2022/04/11 06:18:53;;;;;;;11.30;3.17;;;;;;;9.90;42.12;101371.91;5073313;28;20044;-71
2022/04/11 06:21:21;;;;;;;6.75;3.65;;;;;;;10.03;41.99;101372.59;5082830;28;20040;-72
2022/04/11 06:23:49;;;;;;;11.98;3.78;;;;;;;10.17;41.96;101387.50;5065355;28;20045;-72
2022/04/11 06:26:20;;;;;;;9.63;3.80;;;;;;;10.20;41.45;101381.53;5072211;28;20058;-71
2022/04/11 06:28:48;;;;;;;8.57;3.83;;;;;;;10.22;41.05;101394.97;5072459;28;20055;-72
2022/04/11 06:31:16;;;;;;;7.05;3.40;;;;;;;10.37;40.34;101393.47;5072238;28;20052;-72
2022/04/11 06:33:49;;;;;;;8.93;3.40;;;;;;;10.50;40.46;101400.47;5072418;28;20041;-72
2022/04/11 06:36:21;;;;;;;6.45;4.05;;;;;;;10.64;40.70;101398.94;5087856;28;20526;-72
2022/04/11 06:38:49;;;;;;;9.05;4.30;;;;;;;10.64;40.72;101398.13;5058510;28;20037;-72
2022/04/11 06:41:18;;;;;;;5.20;3.50;;;;;;;10.78;40.70;101401.25;5072038;28;20047;-72
2022/04/11 06:43:46;;;;;;;9.48;3.83;;;;;;;10.77;40.45;101397.69;5073220;28;20048;-72
2022/04/11 06:46:31;;;;;;;12.88;3.67;;;;;;;10.80;40.61;101399.91;5074463;28;20041;-72
2022/04/11 06:49:00;;;;;;;6.55;3.58;;;;;;;11.00;40.41;101396.50;5072227;28;20062;-72
2022/04/11 06:51:29;;;;;;;7.47;3.38;;;;;;;11.13;39.70;101388.91;5072001;28;20056;-72
2022/04/11 06:53:57;;;;;;;5.90;3.38;;;;;;;11.26;40.22;101391.22;5073012;28;20037;-72
2022/04/11 06:56:25;;;;;;;7.72;3.70;;;;;;;11.46;39.81;101397.88;5073118;28;20056;-72
2022/04/11 06:58:53;;;;;;;13.70;3.72;;;;;;;11.51;38.66;101402.56;5073039;28;20390;-72
2022/04/11 07:01:21;;;;;;;5.70;3.63;;;;;;;11.50;38.08;101404.50;5072843;28;20041;-72
2022/04/11 07:03:52;;;;;;;5.40;3.83;;;;;;;11.40;37.77;101404.44;5070932;28;20037;-71
2022/04/11 07:06:20;;;;;;;6.65;3.80;;;;;;;11.51;37.62;101402.56;5069687;28;20045;-71
2022/04/11 07:08:48;;;;;;;8.85;3.95;;;;;;;11.61;38.23;101401.78;5080217;28;20403;-72
2022/04/11 07:11:16;;;;;;;4.65;3.38;;;;;;;11.74;37.29;101405.97;5078040;28;20062;-72
2022/04/11 07:13:45;;;;;;;5.15;3.45;;;;;;;11.89;37.62;101410.69;5083378;28;20421;-72
2022/04/11 07:16:31;;;;;;;9.10;3.97;;;;;;;11.87;36.35;101421.13;5072319;28;20055;-72
2022/04/11 07:18:59;;;;;;;7.53;3.90;;;;;;;12.06;36.65;101413.25;5072079;28;20055;-72
2022/04/11 07:21:27;;;;;;;6.82;3.90;;;;;;;12.07;36.07;101421.22;5071762;28;20395;-72
2022/04/11 07:23:55;;;;;;;12.13;3.78;;;;;;;12.21;36.71;101420.69;5070807;28;20056;-72
2022/04/11 07:26:23;;;;;;;8.38;4.03;;;;;;;12.29;36.24;101417.44;5071109;28;20059;-72
2022/04/11 07:28:51;;;;;;;7.20;3.42;;;;;;;12.45;36.03;101431.16;5068859;28;20041;-72
2022/04/11 07:31:19;;;;;;;5.30;3.80;;;;;;;12.48;35.65;101428.72;5070316;28;20037;-72
2022/04/11 07:33:49;;;;;;;10.15;3.80;;;;;;;12.54;35.79;101432.31;5071572;28;20051;-72
2022/04/11 07:36:17;;;;;;;8.95;4.10;;;;;;;12.49;35.54;101437.78;5071590;28;20037;-73
2022/04/11 07:38:44;;;;;;;6.88;3.65;;;;;;;12.68;35.67;101437.25;5070578;28;20047;-71
2022/04/11 07:41:12;;;;;;;9.20;3.80;;;;;;;12.71;35.59;101453.19;5071810;28;20040;-72
2022/04/11 07:43:40;;;;;;;8.27;3.70;;;;;;;12.81;35.23;101442.19;5071650;28;20041;-72
2022/04/11 07:46:08;;;;;;;5.90;3.72;;;;;;;12.82;35.99;101443.03;5071576;28;20051;-73
2022/04/11 07:48:36;;;;;;;7.85;3.78;;;;;;;12.88;35.94;101445.53;5071679;28;20060;-72
2022/04/11 07:51:04;;;;;;;5.05;3.42;;;;;;;13.03;34.89;101446.59;5071809;28;20059;-72
2022/04/11 07:53:32;;;;;;;7.15;4.35;;;;;;;13.10;35.62;101447.16;5071373;28;20056;-72
2022/04/11 07:56:00;;;;;;;5.07;3.65;;;;;;;13.13;36.27;101440.28;5071601;28;20044;-72
2022/04/11 07:58:28;;;;;;;5.72;4.20;;;;;;;13.20;35.79;101440.00;5071438;28;20041;-72
2022/04/11 08:00:56;;;;;;;10.88;4.10;;;;;;;13.39;36.08;101441.06;5071660;28;20037;-72
2022/04/11 08:03:24;;;;;;;6.60;4.20;;;;;;;13.37;36.25;101437.78;5071439;28;20359;-72
2022/04/11 08:05:52;;;;;;;7.72;4.55;;;;;;;13.31;36.91;101434.19;5071217;28;20067;-72
2022/04/11 08:08:21;;;;;;;7.03;4.20;;;;;;;13.56;36.83;101434.47;5071138;28;20044;-72
2022/04/11 08:10:49;;;;;;;6.75;4.13;;;;;;;13.56;37.32;101431.72;5085784;28;20029;-72
2022/04/11 08:13:16;;;;;;;7.78;4.50;;;;;;;13.65;36.91;101438.28;5061344;28;20037;-72
2022/04/11 08:15:45;;;;;;;10.55;4.38;;;;;;;13.83;36.81;101439.59;5071243;28;20048;-74
2022/04/11 08:18:12;;;;;;;9.65;4.72;;;;;;;13.76;37.05;101435.50;5070034;28;20040;-72
2022/04/11 08:20:40;;;;;;;8.77;4.55;;;;;;;13.75;37.11;101433.84;5069454;28;20048;-72
2022/04/11 08:23:09;;;;;;;9.35;4.82;;;;;;;13.94;36.98;101431.31;5070912;28;20036;-72
2022/04/11 08:25:37;;;;;;;12.75;5.07;;;;;;;13.84;36.93;101429.44;5070999;28;20406;-72
2022/04/11 08:28:05;;;;;;;10.95;5.00;;;;;;;13.87;37.14;101436.31;5074608;28;20047;-72
2022/04/11 08:30:33;;;;;;;11.90;5.00;;;;;;;14.02;37.01;101438.16;5076605;28;20044;-72
2022/04/11 08:33:01;;;;;;;10.35;5.10;;;;;;;14.04;36.86;101442.28;5077118;28;20036;-73
2022/04/11 08:35:29;;;;;;;9.27;4.85;;;;;;;14.15;35.78;101434.78;5087121;28;20051;-72
2022/04/11 08:37:57;;;;;;;9.40;4.63;;;;;;;14.17;34.10;101423.50;5080630;28;20403;-72
2022/04/11 08:40:25;;;;;;;7.65;4.45;;;;;;;14.33;35.20;101438.81;5053910;28;20509;-72
2022/04/11 08:42:53;;;;;;;6.60;4.03;;;;;;;14.46;33.65;101437.34;5073981;28;20052;-73
2022/04/11 08:45:23;;;;;;;7.10;4.22;;;;;;;14.52;33.09;101436.22;5073641;28;20045;-72
2022/04/11 08:47:54;;;;;;;5.68;3.33;;;;;;;14.44;31.42;101428.56;5073229;28;20051;-72
2022/04/11 08:50:24;;;;;;;8.57;3.30;;;;;;;14.64;31.22;101426.78;5074050;28;20044;-72
2022/04/11 08:52:53;;;;;;;4.75;2.92;;;;;;;14.50;30.66;101435.69;5074723;28;20407;-73
2022/04/11 08:55:22;;;;;;;4.70;2.60;;;;;;;14.59;27.26;101427.63;5073629;28;20041;-73
2022/04/11 08:57:50;;;;;;;3.70;2.40;;;;;;;14.68;28.12;101438.88;5063551;28;20494;-73
2022/04/11 09:00:20;;;;;;;2.85;2.03;;;;;;;14.71;26.57;101431.97;5074718;28;20057;-72
2022/04/11 09:02:48;;;;;;;3.92;2.47;;;;;;;14.54;26.94;101426.84;5074777;28;20040;-73
2022/04/11 09:05:21;;;;;;;4.45;2.92;;;;;;;14.86;28.37;101442.88;5073392;28;20036;-72
2022/04/11 09:07:52;;;;;;;4.40;2.30;;;;;;;14.63;25.75;101439.72;5074340;28;20051;-72
2022/04/11 09:10:29;;;;;;;3.65;2.00;;;;;;;14.59;26.69;101441.41;5073033;28;20053;-72
2022/04/11 09:13:05;;;;;;;3.88;2.45;;;;;;;14.71;26.43;101437.47;5074437;28;20042;-72
2022/04/11 09:15:42;;;;;;;3.28;2.72;;;;;;;14.70;26.76;101436.63;5074428;28;20048;-72
2022/04/11 09:18:10;;;;;;;6.32;2.60;;;;;;;14.88;27.36;101442.59;5074405;28;20038;-72
2022/04/11 09:20:43;;;;;;;4.05;2.40;;;;;;;14.79;27.62;101436.88;5074430;28;20041;-72
2022/04/11 09:23:18;;;;;;;6.28;2.60;;;;;;;14.85;27.44;101440.41;5074230;28;20043;-72
2022/04/11 09:25:47;;;;;;;3.55;2.10;;;;;;;15.03;26.08;101438.88;5074181;28;20055;-72
2022/04/11 09:28:15;;;;;;;4.53;2.35;;;;;;;15.09;27.19;101442.41;5074091;28;20475;-73
2022/04/11 09:30:45;;;;;;;2.90;2.40;;;;;;;14.89;26.17;101434.06;5074224;28;20040;-72
2022/04/11 09:33:14;;;;;;;5.57;2.20;;;;;;;15.17;26.15;101439.84;5073946;28;20413;-73
2022/04/11 09:35:49;;;;;;;4.25;2.22;;;;;;;15.26;25.80;101442.00;5074089;28;20052;-73
2022/04/11 09:38:19;;;;;;;3.45;2.28;;;;;;;15.23;26.00;101435.13;5073694;28;20499;-73
2022/04/11 09:40:53;;;;;;;4.38;2.58;;;;;;;15.43;27.03;101438.78;5072469;28;20045;-73
2022/04/11 09:43:26;;;;;;;3.58;2.45;;;;;;;15.42;25.44;101437.13;5073834;28;20494;-73
2022/04/11 09:45:56;;;;;;;3.80;2.20;;;;;;;15.35;27.35;101434.72;5074056;28;20060;-73
2022/04/11 09:48:27;;;;;;;3.53;2.17;;;;;;;15.57;27.60;101438.91;5073882;28;20050;-73
2022/04/11 09:51:00;;;;;;;3.80;2.75;;;;;;;15.63;27.70;101428.66;5072841;28;20048;-73
2022/04/11 09:53:34;;;;;;;2.50;1.85;;;;;;;15.79;26.29;101430.09;5072949;28;20062;-73
2022/04/11 09:56:04;;;;;;;4.20;2.58;;;;;;;15.80;27.72;101426.22;5072838;28;20052;-73
2022/04/11 09:58:35;;;;;;;4.50;2.72;;;;;;;15.96;27.38;101432.41;5073797;28;20044;-73
2022/04/11 10:01:04;;;;;;;3.33;1.77;;;;;;;15.88;29.59;101429.47;5073994;28;20477;-73
2022/04/11 10:03:32;;;;;;;5.10;2.72;;;;;;;15.72;28.69;101435.16;5069086;28;20509;-73
2022/04/11 10:06:03;;;;;;;4.80;2.72;;;;;;;15.72;28.00;101424.94;5082974;28;20054;-73
2022/04/11 10:08:33;;;;;;;3.58;2.08;;;;;;;15.69;28.71;101427.47;5083567;28;20048;-73
2022/04/11 10:11:04;;;;;;;3.08;2.22;;;;;;;15.67;28.04;101424.16;5086561;28;20044;-73
2022/04/11 10:13:36;;;;;;;2.78;2.38;;;;;;;15.76;28.32;101424.34;5083938;28;20394;-72
2022/04/11 10:16:05;;;;;;;5.35;2.95;;;;;;;15.95;28.21;101424.41;5084590;28;20045;-73
2022/04/11 10:18:34;;;;;;;3.70;2.60;;;;;;;15.97;28.47;101411.97;5073698;28;20044;-73
2022/04/11 10:21:05;;;;;;;5.32;2.58;;;;;;;16.09;27.43;101402.44;5073052;28;20419;-73
2022/04/11 10:24:08;;;;;;;4.45;2.35;;;;;;;16.23;28.02;101408.03;5071577;28;20037;-73
2022/04/11 10:26:45;;;;;;;4.13;2.42;;;;;;;16.14;28.68;101401.53;5098045;28;20055;-72
2022/04/11 10:29:33;;;;;;;3.80;2.67;;;;;;;16.18;27.36;101405.34;5078897;28;20049;-72
2022/04/11 10:32:16;;;;;;;7.35;2.70;;;;;;;16.34;27.21;101404.00;5073190;28;20067;-73
2022/04/11 10:35:04;;;;;;;7.35;2.22;;;;;;;16.55;27.50;101408.38;5072969;28;20044;-73
2022/04/11 10:37:41;;;;;;;8.20;2.40;;;;;;;16.39;26.75;101400.34;5072668;28;20067;-73
2022/04/11 10:40:15;;;;;;;4.00;2.80;;;;;;;16.56;26.49;101397.03;5072554;28;20052;-73
2022/04/11 10:43:04;;;;;;;4.60;2.67;;;;;;;16.75;27.73;101393.41;5074231;28;20394;-73
2022/04/11 10:45:38;;;;;;;6.18;2.70;;;;;;;16.81;28.15;101400.50;5078529;28;20391;-73
2022/04/11 10:48:09;;;;;;;3.90;2.60;;;;;;;16.46;28.19;101397.19;5082135;28;20051;-73
2022/04/11 10:50:42;;;;;;;4.03;2.30;;;;;;;16.53;27.47;101400.41;5082569;28;20394;-72
2022/04/11 10:53:11;;;;;;;4.28;2.50;;;;;;;16.70;28.27;101388.78;5088124;28;20040;-73
2022/04/11 10:56:08;;;;;;;3.50;2.63;;;;;;;16.81;26.76;101381.13;5090234;28;20052;-73
2022/04/11 10:58:48;;;;;;;5.20;3.00;;;;;;;16.77;27.17;101374.59;5079351;28;20044;-73
2022/04/11 11:01:42;;;;;;;6.88;3.90;;;;;;;16.90;26.74;101373.81;5078000;28;20048;-73
2022/04/11 11:04:19;;;;;;;3.58;2.60;;;;;;;17.26;26.57;101380.63;5070806;28;20040;-73
2022/04/11 11:07:08;;;;;;;4.68;3.42;;;;;;;17.46;26.21;101384.16;5082892;28;20482;-74
2022/04/11 11:09:40;;;;;;;5.68;2.97;;;;;;;17.51;26.83;101377.69;5078423;28;20036;-73
2022/04/11 11:12:19;;;;;;;6.57;3.95;;;;;;;17.37;27.09;101366.63;5070464;28;20044;-73
2022/04/11 11:14:50;;;;;;;4.97;2.95;;;;;;;17.51;26.55;101377.69;5071320;28;20048;-73
2022/04/11 11:17:18;;;;;;;4.15;3.05;;;;;;;17.68;26.78;101369.56;5076189;28;20063;-72
2022/04/11 11:20:04;;;;;;;4.50;3.20;;;;;;;17.46;27.47;101373.09;5085602;28;20040;-72
2022/04/11 11:22:53;;;;;;;7.18;3.28;;;;;;;17.63;27.47;101366.91;5074002;28;20045;-72
2022/04/11 11:25:22;;;;;;;4.22;3.22;;;;;;;17.38;27.89;101369.06;5072064;28;20384;-71
2022/04/11 11:27:50;;;;;;;5.95;3.50;;;;;;;17.74;28.10;101370.28;5080218;28;20064;-72
2022/04/11 11:30:18;;;;;;;3.90;3.25;;;;;;;17.91;26.90;101368.81;5086057;28;20398;-72
2022/04/11 11:32:46;;;;;;;5.15;3.47;;;;;;;18.07;27.92;101369.31;5092933;28;20044;-72
2022/04/11 11:35:15;;;;;;;6.57;3.80;;;;;;;17.68;28.20;101366.81;5075618;28;20126;-73
2022/04/11 11:37:46;;;;;;;6.65;3.95;;;;;;;17.87;28.37;101363.09;5071904;28;20055;-73
2022/04/11 11:40:16;;;;;;;4.68;3.55;;;;;;;17.93;27.31;101356.31;5076006;28;20040;-73
2022/04/11 11:42:48;;;;;;;4.72;3.60;;;;;;;18.03;27.29;101357.22;5082892;28;20402;-73
2022/04/11 11:45:26;;;;;;;5.10;3.58;;;;;;;18.09;28.10;101353.22;5080235;28;20048;-73